sensor_id;sensor_type;location;lat;lon;timestamp;temperature;humidity
4874;DHT22;2451;49.970;9.068;2024-02-28T00:02:24;4.40;99.90
4874;DHT22;2451;49.970;9.068;2024-02-28T00:04:49;4.40;99.90
4874;DHT22;2451;49.970;9.068;2024-02-28T00:07:15;4.40;99.90
4874;DHT22;2451;49.970;9.068;2024-02-28T00:09:40;4.40;99.90
4874;DHT22;2451;49.970;9.068;2024-02-28T00:12:06;4.40;99.90
4874;DHT22;2451;49.970;9.068;2024-02-28T00:14:35;4.40;99.90
4874;DHT22;2451;49.970;9.068;2024-02-28T00:17:00;4.40;99.90
4874;DHT22;2451;49.970;9.068;2024-02-28T00:19:26;4.30;99.90
4874;DHT22;2451;49.970;9.068;2024-02-28T00:21:51;4.30;99.90
4874;DHT22;2451;49.970;9.068;2024-02-28T00:24:17;4.20;99.90
4874;DHT22;2451;49.970;9.068;2024-02-28T00:26:43;4.20;99.90
4874;DHT22;2451;49.970;9.068;2024-02-28T00:29:11;4.10;99.90
4874;DHT22;2451;49.970;9.068;2024-02-28T00:31:37;4.10;99.90
4874;DHT22;2451;49.970;9.068;2024-02-28T00:34:02;4.10;99.90
4874;DHT22;2451;49.970;9.068;2024-02-28T00:36:28;4.10;99.90
4874;DHT22;2451;49.970;9.068;2024-02-28T00:38:54;4.20;99.90
4874;DHT22;2451;49.970;9.068;2024-02-28T00:41:19;4.20;99.90
4874;DHT22;2451;49.970;9.068;2024-02-28T00:43:45;4.20;99.90
4874;DHT22;2451;49.970;9.068;2024-02-28T00:46:10;4.20;99.90
4874;DHT22;2451;49.970;9.068;2024-02-28T00:48:39;4.10;99.90
4874;DHT22;2451;49.970;9.068;2024-02-28T00:51:05;4.10;99.90
4874;DHT22;2451;49.970;9.068;2024-02-28T00:53:35;4.00;99.90
4874;DHT22;2451;49.970;9.068;2024-02-28T00:56:00;3.90;99.90
4874;DHT22;2451;49.970;9.068;2024-02-28T00:58:26;3.90;99.90
4874;DHT22;2451;49.970;9.068;2024-02-28T01:00:53;3.80;99.90
4874;DHT22;2451;49.970;9.068;2024-02-28T01:03:19;3.80;99.90
4874;DHT22;2451;49.970;9.068;2024-02-28T01:05:46;3.70;99.90
4874;DHT22;2451;49.970;9.068;2024-02-28T01:08:12;3.70;99.90
4874;DHT22;2451;49.970;9.068;2024-02-28T01:10:37;3.60;99.90
4874;DHT22;2451;49.970;9.068;2024-02-28T01:13:03;3.60;99.90
4874;DHT22;2451;49.970;9.068;2024-02-28T01:15:32;3.60;99.90
4874;DHT22;2451;49.970;9.068;2024-02-28T01:17:58;3.50;99.90
4874;DHT22;2451;49.970;9.068;2024-02-28T01:20:24;3.40;99.90
4874;DHT22;2451;49.970;9.068;2024-02-28T01:22:49;3.40;99.90
4874;DHT22;2451;49.970;9.068;2024-02-28T01:25:15;3.40;99.90
4874;DHT22;2451;49.970;9.068;2024-02-28T01:27:40;3.40;99.90
4874;DHT22;2451;49.970;9.068;2024-02-28T01:30:06;3.30;99.90
4874;DHT22;2451;49.970;9.068;2024-02-28T01:32:32;3.20;99.90
4874;DHT22;2451;49.970;9.068;2024-02-28T01:34:58;3.20;99.90
4874;DHT22;2451;49.970;9.068;2024-02-28T01:37:24;3.10;99.90
4874;DHT22;2451;49.970;9.068;2024-02-28T01:39:49;3.10;99.90
4874;DHT22;2451;49.970;9.068;2024-02-28T01:42:15;3.00;99.90
4874;DHT22;2451;49.970;9.068;2024-02-28T01:44:46;3.00;99.90
4874;DHT22;2451;49.970;9.068;2024-02-28T01:47:12;3.00;99.90
4874;DHT22;2451;49.970;9.068;2024-02-28T01:49:42;2.90;99.90
4874;DHT22;2451;49.970;9.068;2024-02-28T01:52:08;2.80;99.90
4874;DHT22;2451;49.970;9.068;2024-02-28T01:54:35;2.80;99.90
4874;DHT22;2451;49.970;9.068;2024-02-28T01:57:01;2.80;99.90
4874;DHT22;2451;49.970;9.068;2024-02-28T01:59:28;2.80;99.90
4874;DHT22;2451;49.970;9.068;2024-02-28T02:01:54;2.80;99.90
4874;DHT22;2451;49.970;9.068;2024-02-28T02:04:20;2.80;99.90
4874;DHT22;2451;49.970;9.068;2024-02-28T02:06:46;2.80;99.90
4874;DHT22;2451;49.970;9.068;2024-02-28T02:09:13;2.80;99.90
4874;DHT22;2451;49.970;9.068;2024-02-28T02:11:39;2.80;99.90
4874;DHT22;2451;49.970;9.068;2024-02-28T02:14:05;2.90;99.90
4874;DHT22;2451;49.970;9.068;2024-02-28T02:16:30;2.80;99.90
4874;DHT22;2451;49.970;9.068;2024-02-28T02:18:56;2.80;99.90
4874;DHT22;2451;49.970;9.068;2024-02-28T02:21:30;2.80;99.90
4874;DHT22;2451;49.970;9.068;2024-02-28T02:23:56;2.80;99.90
4874;DHT22;2451;49.970;9.068;2024-02-28T02:26:21;2.80;99.90
4874;DHT22;2451;49.970;9.068;2024-02-28T02:28:47;2.90;99.90
4874;DHT22;2451;49.970;9.068;2024-02-28T02:31:13;2.80;99.90
4874;DHT22;2451;49.970;9.068;2024-02-28T02:33:39;2.90;99.90
4874;DHT22;2451;49.970;9.068;2024-02-28T02:36:04;2.90;99.90
4874;DHT22;2451;49.970;9.068;2024-02-28T02:38:30;2.90;99.90
4874;DHT22;2451;49.970;9.068;2024-02-28T02:40:56;2.80;99.90
4874;DHT22;2451;49.970;9.068;2024-02-28T02:43:21;2.80;99.90
4874;DHT22;2451;49.970;9.068;2024-02-28T02:45:47;2.70;99.90
4874;DHT22;2451;49.970;9.068;2024-02-28T02:48:12;2.70;99.90
4874;DHT22;2451;49.970;9.068;2024-02-28T02:50:38;2.60;99.90
4874;DHT22;2451;49.970;9.068;2024-02-28T02:53:04;2.70;99.90
4874;DHT22;2451;49.970;9.068;2024-02-28T02:55:30;2.60;99.90
4874;DHT22;2451;49.970;9.068;2024-02-28T02:57:56;2.60;99.90
4874;DHT22;2451;49.970;9.068;2024-02-28T03:00:22;2.60;99.90
4874;DHT22;2451;49.970;9.068;2024-02-28T03:02:47;2.60;99.90
4874;DHT22;2451;49.970;9.068;2024-02-28T03:05:13;2.50;99.90
4874;DHT22;2451;49.970;9.068;2024-02-28T03:07:39;2.40;99.90
4874;DHT22;2451;49.970;9.068;2024-02-28T03:10:05;2.40;99.90
4874;DHT22;2451;49.970;9.068;2024-02-28T03:12:31;2.40;99.90
4874;DHT22;2451;49.970;9.068;2024-02-28T03:14:57;2.40;99.90
4874;DHT22;2451;49.970;9.068;2024-02-28T03:17:22;2.30;99.90
4874;DHT22;2451;49.970;9.068;2024-02-28T03:19:48;2.20;99.90
4874;DHT22;2451;49.970;9.068;2024-02-28T03:22:14;2.20;99.90
4874;DHT22;2451;49.970;9.068;2024-02-28T03:24:39;2.10;99.90
4874;DHT22;2451;49.970;9.068;2024-02-28T03:27:05;2.00;99.90
4874;DHT22;2451;49.970;9.068;2024-02-28T03:29:30;2.00;99.90
4874;DHT22;2451;49.970;9.068;2024-02-28T03:31:58;2.00;99.90
4874;DHT22;2451;49.970;9.068;2024-02-28T03:34:23;1.90;99.90
4874;DHT22;2451;49.970;9.068;2024-02-28T03:36:49;1.90;99.90
4874;DHT22;2451;49.970;9.068;2024-02-28T03:39:15;1.90;99.90
4874;DHT22;2451;49.970;9.068;2024-02-28T03:41:40;1.90;99.90
4874;DHT22;2451;49.970;9.068;2024-02-28T03:44:06;1.90;99.90
4874;DHT22;2451;49.970;9.068;2024-02-28T03:46:32;1.90;99.90
4874;DHT22;2451;49.970;9.068;2024-02-28T03:48:57;1.80;99.90
4874;DHT22;2451;49.970;9.068;2024-02-28T03:51:23;1.70;99.90
4874;DHT22;2451;49.970;9.068;2024-02-28T03:53:49;1.80;99.90
4874;DHT22;2451;49.970;9.068;2024-02-28T03:56:26;1.80;99.90
4874;DHT22;2451;49.970;9.068;2024-02-28T03:58:53;1.80;99.90
4874;DHT22;2451;49.970;9.068;2024-02-28T04:01:18;1.70;99.90
4874;DHT22;2451;49.970;9.068;2024-02-28T04:03:44;1.70;99.90
4874;DHT22;2451;49.970;9.068;2024-02-28T04:06:10;1.70;99.90
4874;DHT22;2451;49.970;9.068;2024-02-28T04:08:36;1.70;99.90
4874;DHT22;2451;49.970;9.068;2024-02-28T04:11:01;1.70;99.90
4874;DHT22;2451;49.970;9.068;2024-02-28T04:13:27;1.70;99.90
4874;DHT22;2451;49.970;9.068;2024-02-28T04:15:52;1.70;99.90
4874;DHT22;2451;49.970;9.068;2024-02-28T04:18:18;1.70;99.90
4874;DHT22;2451;49.970;9.068;2024-02-28T04:20:44;1.70;99.90
4874;DHT22;2451;49.970;9.068;2024-02-28T04:23:09;1.60;99.90
4874;DHT22;2451;49.970;9.068;2024-02-28T04:25:35;1.60;99.90
4874;DHT22;2451;49.970;9.068;2024-02-28T04:28:01;1.50;99.90
4874;DHT22;2451;49.970;9.068;2024-02-28T04:30:27;1.40;99.90
4874;DHT22;2451;49.970;9.068;2024-02-28T04:32:53;1.40;99.90
4874;DHT22;2451;49.970;9.068;2024-02-28T04:35:19;1.40;99.90
4874;DHT22;2451;49.970;9.068;2024-02-28T04:37:45;1.40;99.90
4874;DHT22;2451;49.970;9.068;2024-02-28T04:40:11;1.40;99.90
4874;DHT22;2451;49.970;9.068;2024-02-28T04:42:37;1.30;99.90
4874;DHT22;2451;49.970;9.068;2024-02-28T04:45:04;1.40;99.90
4874;DHT22;2451;49.970;9.068;2024-02-28T04:47:29;1.40;99.90
4874;DHT22;2451;49.970;9.068;2024-02-28T04:49:56;1.40;99.90
4874;DHT22;2451;49.970;9.068;2024-02-28T04:52:22;1.40;99.90
4874;DHT22;2451;49.970;9.068;2024-02-28T04:54:47;1.40;99.90
4874;DHT22;2451;49.970;9.068;2024-02-28T04:57:13;1.40;99.90
4874;DHT22;2451;49.970;9.068;2024-02-28T04:59:40;1.30;99.90
4874;DHT22;2451;49.970;9.068;2024-02-28T05:02:06;1.30;99.90
4874;DHT22;2451;49.970;9.068;2024-02-28T05:04:32;1.20;99.90
4874;DHT22;2451;49.970;9.068;2024-02-28T05:06:57;1.00;99.90
4874;DHT22;2451;49.970;9.068;2024-02-28T05:09:23;0.90;99.90
4874;DHT22;2451;49.970;9.068;2024-02-28T05:11:48;0.80;99.90
4874;DHT22;2451;49.970;9.068;2024-02-28T05:14:14;0.80;99.90
4874;DHT22;2451;49.970;9.068;2024-02-28T05:16:40;0.80;99.90
4874;DHT22;2451;49.970;9.068;2024-02-28T05:19:06;0.90;99.90
4874;DHT22;2451;49.970;9.068;2024-02-28T05:21:31;0.90;99.90
4874;DHT22;2451;49.970;9.068;2024-02-28T05:23:57;0.90;99.90
4874;DHT22;2451;49.970;9.068;2024-02-28T05:26:22;0.90;99.90
4874;DHT22;2451;49.970;9.068;2024-02-28T05:28:48;0.90;99.90
4874;DHT22;2451;49.970;9.068;2024-02-28T05:31:22;1.00;99.90
4874;DHT22;2451;49.970;9.068;2024-02-28T05:33:48;1.00;99.90
4874;DHT22;2451;49.970;9.068;2024-02-28T05:36:14;1.10;99.90
4874;DHT22;2451;49.970;9.068;2024-02-28T05:38:40;1.20;99.90
4874;DHT22;2451;49.970;9.068;2024-02-28T05:41:05;1.20;99.90
4874;DHT22;2451;49.970;9.068;2024-02-28T05:43:31;1.30;99.90
4874;DHT22;2451;49.970;9.068;2024-02-28T05:45:56;1.30;99.90
4874;DHT22;2451;49.970;9.068;2024-02-28T05:48:22;1.40;99.90
4874;DHT22;2451;49.970;9.068;2024-02-28T05:50:48;1.40;99.90
4874;DHT22;2451;49.970;9.068;2024-02-28T05:53:13;1.40;99.90
4874;DHT22;2451;49.970;9.068;2024-02-28T05:55:39;1.40;99.90
4874;DHT22;2451;49.970;9.068;2024-02-28T05:58:05;1.50;99.90
4874;DHT22;2451;49.970;9.068;2024-02-28T06:00:31;1.50;99.90
4874;DHT22;2451;49.970;9.068;2024-02-28T06:02:56;1.50;99.90
4874;DHT22;2451;49.970;9.068;2024-02-28T06:05:22;1.50;99.90
4874;DHT22;2451;49.970;9.068;2024-02-28T06:07:47;1.50;99.90
4874;DHT22;2451;49.970;9.068;2024-02-28T06:10:13;1.60;99.90
4874;DHT22;2451;49.970;9.068;2024-02-28T06:12:38;1.60;99.90
4874;DHT22;2451;49.970;9.068;2024-02-28T06:15:04;1.60;99.90
4874;DHT22;2451;49.970;9.068;2024-02-28T06:17:30;1.70;99.90
4874;DHT22;2451;49.970;9.068;2024-02-28T06:19:56;1.70;99.90
4874;DHT22;2451;49.970;9.068;2024-02-28T06:22:21;1.80;99.90
4874;DHT22;2451;49.970;9.068;2024-02-28T06:24:47;1.80;99.90
4874;DHT22;2451;49.970;9.068;2024-02-28T06:27:12;1.90;99.90
4874;DHT22;2451;49.970;9.068;2024-02-28T06:29:40;1.90;99.90
4874;DHT22;2451;49.970;9.068;2024-02-28T06:32:06;1.90;99.90
4874;DHT22;2451;49.970;9.068;2024-02-28T06:34:32;1.90;99.90
4874;DHT22;2451;49.970;9.068;2024-02-28T06:36:58;1.90;99.90
4874;DHT22;2451;49.970;9.068;2024-02-28T06:39:23;1.90;99.90
4874;DHT22;2451;49.970;9.068;2024-02-28T06:41:49;2.00;99.90
4874;DHT22;2451;49.970;9.068;2024-02-28T06:44:18;2.00;99.90
4874;DHT22;2451;49.970;9.068;2024-02-28T06:46:44;2.00;99.90
4874;DHT22;2451;49.970;9.068;2024-02-28T06:49:09;2.00;99.90
4874;DHT22;2451;49.970;9.068;2024-02-28T06:51:35;2.10;99.90
4874;DHT22;2451;49.970;9.068;2024-02-28T06:54:01;2.20;99.90
4874;DHT22;2451;49.970;9.068;2024-02-28T06:56:26;2.30;99.90
4874;DHT22;2451;49.970;9.068;2024-02-28T06:58:52;2.30;99.90
4874;DHT22;2451;49.970;9.068;2024-02-28T07:01:18;2.40;99.90
4874;DHT22;2451;49.970;9.068;2024-02-28T07:03:44;2.40;99.90
4874;DHT22;2451;49.970;9.068;2024-02-28T07:06:10;2.50;99.90
4874;DHT22;2451;49.970;9.068;2024-02-28T07:08:36;2.60;99.90
4874;DHT22;2451;49.970;9.068;2024-02-28T07:11:02;2.70;99.90
4874;DHT22;2451;49.970;9.068;2024-02-28T07:13:28;2.80;99.90
4874;DHT22;2451;49.970;9.068;2024-02-28T07:15:54;2.80;99.90
4874;DHT22;2451;49.970;9.068;2024-02-28T07:18:20;2.90;99.90
4874;DHT22;2451;49.970;9.068;2024-02-28T07:20:46;2.90;99.90
4874;DHT22;2451;49.970;9.068;2024-02-28T07:23:12;3.00;99.90
4874;DHT22;2451;49.970;9.068;2024-02-28T07:25:37;3.10;99.90
4874;DHT22;2451;49.970;9.068;2024-02-28T07:28:03;3.20;99.90
4874;DHT22;2451;49.970;9.068;2024-02-28T07:30:30;3.40;99.90
4874;DHT22;2451;49.970;9.068;2024-02-28T07:32:55;3.60;99.90
4874;DHT22;2451;49.970;9.068;2024-02-28T07:35:21;4.10;99.90
4874;DHT22;2451;49.970;9.068;2024-02-28T07:37:49;4.70;99.90
4874;DHT22;2451;49.970;9.068;2024-02-28T07:40:14;5.30;99.90
4874;DHT22;2451;49.970;9.068;2024-02-28T07:42:40;5.80;99.90
4874;DHT22;2451;49.970;9.068;2024-02-28T07:45:06;6.40;99.90
4874;DHT22;2451;49.970;9.068;2024-02-28T07:47:34;6.90;99.90
4874;DHT22;2451;49.970;9.068;2024-02-28T07:49:59;7.30;99.90
4874;DHT22;2451;49.970;9.068;2024-02-28T07:52:25;7.60;99.90
4874;DHT22;2451;49.970;9.068;2024-02-28T07:54:50;7.30;99.90
4874;DHT22;2451;49.970;9.068;2024-02-28T07:57:17;7.10;99.90
4874;DHT22;2451;49.970;9.068;2024-02-28T07:59:42;6.90;99.90
4874;DHT22;2451;49.970;9.068;2024-02-28T08:02:08;6.40;99.90
4874;DHT22;2451;49.970;9.068;2024-02-28T08:04:36;6.20;99.90
4874;DHT22;2451;49.970;9.068;2024-02-28T08:07:02;5.80;99.90
4874;DHT22;2451;49.970;9.068;2024-02-28T08:09:28;5.50;99.90
4874;DHT22;2451;49.970;9.068;2024-02-28T08:11:54;5.20;99.90
4874;DHT22;2451;49.970;9.068;2024-02-28T08:14:19;4.90;99.90
4874;DHT22;2451;49.970;9.068;2024-02-28T08:16:45;4.50;99.90
4874;DHT22;2451;49.970;9.068;2024-02-28T08:19:11;4.30;99.90
4874;DHT22;2451;49.970;9.068;2024-02-28T08:21:36;4.20;99.90
4874;DHT22;2451;49.970;9.068;2024-02-28T08:24:02;4.00;99.90
4874;DHT22;2451;49.970;9.068;2024-02-28T08:26:31;3.90;99.90
4874;DHT22;2451;49.970;9.068;2024-02-28T08:28:56;3.80;99.90
4874;DHT22;2451;49.970;9.068;2024-02-28T08:31:22;3.80;99.90
4874;DHT22;2451;49.970;9.068;2024-02-28T08:33:48;3.70;99.90
4874;DHT22;2451;49.970;9.068;2024-02-28T08:36:13;3.80;99.90
4874;DHT22;2451;49.970;9.068;2024-02-28T08:38:40;3.80;99.90
4874;DHT22;2451;49.970;9.068;2024-02-28T08:41:07;3.80;99.90
4874;DHT22;2451;49.970;9.068;2024-02-28T08:43:40;3.90;99.90
4874;DHT22;2451;49.970;9.068;2024-02-28T08:46:06;3.90;99.90
4874;DHT22;2451;49.970;9.068;2024-02-28T08:48:32;4.00;99.90
4874;DHT22;2451;49.970;9.068;2024-02-28T08:50:58;4.00;99.90
4874;DHT22;2451;49.970;9.068;2024-02-28T08:53:23;4.00;99.90
4874;DHT22;2451;49.970;9.068;2024-02-28T08:55:49;4.00;99.90
4874;DHT22;2451;49.970;9.068;2024-02-28T08:58:15;4.00;99.90
4874;DHT22;2451;49.970;9.068;2024-02-28T09:00:40;4.10;99.90
4874;DHT22;2451;49.970;9.068;2024-02-28T09:03:06;4.00;99.90
4874;DHT22;2451;49.970;9.068;2024-02-28T09:05:32;4.20;99.90
4874;DHT22;2451;49.970;9.068;2024-02-28T09:07:57;4.40;99.90
4874;DHT22;2451;49.970;9.068;2024-02-28T09:10:23;4.50;99.90
4874;DHT22;2451;49.970;9.068;2024-02-28T09:12:52;4.70;99.90
4874;DHT22;2451;49.970;9.068;2024-02-28T09:15:18;4.90;99.90
4874;DHT22;2451;49.970;9.068;2024-02-28T09:17:44;5.10;99.90
4874;DHT22;2451;49.970;9.068;2024-02-28T09:20:10;5.40;99.90
4874;DHT22;2451;49.970;9.068;2024-02-28T09:22:36;5.70;99.90
4874;DHT22;2451;49.970;9.068;2024-02-28T09:25:01;6.00;99.90
4874;DHT22;2451;49.970;9.068;2024-02-28T09:27:30;6.00;99.90
4874;DHT22;2451;49.970;9.068;2024-02-28T09:29:55;6.30;99.90
4874;DHT22;2451;49.970;9.068;2024-02-28T09:32:21;6.60;99.90
4874;DHT22;2451;49.970;9.068;2024-02-28T09:34:47;6.70;99.90
4874;DHT22;2451;49.970;9.068;2024-02-28T09:37:13;7.00;99.90
4874;DHT22;2451;49.970;9.068;2024-02-28T09:39:39;7.20;99.90
4874;DHT22;2451;49.970;9.068;2024-02-28T09:42:08;7.50;99.90
4874;DHT22;2451;49.970;9.068;2024-02-28T09:44:39;7.80;99.90
4874;DHT22;2451;49.970;9.068;2024-02-28T09:47:05;8.40;99.90
4874;DHT22;2451;49.970;9.068;2024-02-28T09:49:31;8.60;99.90
4874;DHT22;2451;49.970;9.068;2024-02-28T09:51:58;8.80;99.90
4874;DHT22;2451;49.970;9.068;2024-02-28T09:54:25;9.10;99.90
4874;DHT22;2451;49.970;9.068;2024-02-28T09:56:51;9.40;99.90
4874;DHT22;2451;49.970;9.068;2024-02-28T09:59:18;9.40;99.90
4874;DHT22;2451;49.970;9.068;2024-02-28T10:01:49;9.70;99.90
4874;DHT22;2451;49.970;9.068;2024-02-28T10:04:19;10.00;99.90
4874;DHT22;2451;49.970;9.068;2024-02-28T10:06:46;9.50;99.90
4874;DHT22;2451;49.970;9.068;2024-02-28T10:09:14;9.20;99.90
4874;DHT22;2451;49.970;9.068;2024-02-28T10:11:41;9.30;99.90
4874;DHT22;2451;49.970;9.068;2024-02-28T10:14:09;9.50;99.90
4874;DHT22;2451;49.970;9.068;2024-02-28T10:16:35;9.90;99.90
4874;DHT22;2451;49.970;9.068;2024-02-28T10:19:00;10.30;99.90
4874;DHT22;2451;49.970;9.068;2024-02-28T10:21:26;10.50;99.90
4874;DHT22;2451;49.970;9.068;2024-02-28T10:23:52;11.20;99.90
4874;DHT22;2451;49.970;9.068;2024-02-28T10:26:17;11.80;99.90
4874;DHT22;2451;49.970;9.068;2024-02-28T10:28:44;12.20;99.90
4874;DHT22;2451;49.970;9.068;2024-02-28T10:31:10;12.60;99.90
4874;DHT22;2451;49.970;9.068;2024-02-28T10:33:41;12.40;99.90
4874;DHT22;2451;49.970;9.068;2024-02-28T10:36:06;12.80;99.90
4874;DHT22;2451;49.970;9.068;2024-02-28T10:38:32;13.20;99.90
4874;DHT22;2451;49.970;9.068;2024-02-28T10:41:00;12.90;99.90
4874;DHT22;2451;49.970;9.068;2024-02-28T10:43:29;13.20;99.90
4874;DHT22;2451;49.970;9.068;2024-02-28T10:45:57;13.40;99.90
4874;DHT22;2451;49.970;9.068;2024-02-28T10:48:24;13.50;99.90
4874;DHT22;2451;49.970;9.068;2024-02-28T10:50:50;13.50;99.90
4874;DHT22;2451;49.970;9.068;2024-02-28T10:53:20;13.10;99.90
4874;DHT22;2451;49.970;9.068;2024-02-28T10:55:48;13.30;99.90
4874;DHT22;2451;49.970;9.068;2024-02-28T10:58:19;13.30;99.90
4874;DHT22;2451;49.970;9.068;2024-02-28T11:00:48;13.30;99.90
4874;DHT22;2451;49.970;9.068;2024-02-28T11:03:17;13.70;99.90
4874;DHT22;2451;49.970;9.068;2024-02-28T11:05:44;14.10;99.90
4874;DHT22;2451;49.970;9.068;2024-02-28T11:08:22;14.00;99.90
4874;DHT22;2451;49.970;9.068;2024-02-28T11:10:58;14.10;99.90
4874;DHT22;2451;49.970;9.068;2024-02-28T11:13:25;14.10;99.90
4874;DHT22;2451;49.970;9.068;2024-02-28T11:15:52;14.40;99.90
4874;DHT22;2451;49.970;9.068;2024-02-28T11:18:18;14.40;99.90
4874;DHT22;2451;49.970;9.068;2024-02-28T11:20:47;14.50;99.90
4874;DHT22;2451;49.970;9.068;2024-02-28T11:23:14;14.30;99.90
4874;DHT22;2451;49.970;9.068;2024-02-28T11:25:43;14.40;99.90
4874;DHT22;2451;49.970;9.068;2024-02-28T11:28:09;14.90;99.90
4874;DHT22;2451;49.970;9.068;2024-02-28T11:30:35;15.10;99.90
4874;DHT22;2451;49.970;9.068;2024-02-28T11:33:03;15.30;99.90
4874;DHT22;2451;49.970;9.068;2024-02-28T11:35:30;15.70;99.20
4874;DHT22;2451;49.970;9.068;2024-02-28T11:37:56;15.70;98.40
4874;DHT22;2451;49.970;9.068;2024-02-28T11:40:26;15.60;98.90
4874;DHT22;2451;49.970;9.068;2024-02-28T11:42:52;15.70;98.60
4874;DHT22;2451;49.970;9.068;2024-02-28T11:45:19;15.50;97.80
4874;DHT22;2451;49.970;9.068;2024-02-28T11:47:45;15.70;97.80
4874;DHT22;2451;49.970;9.068;2024-02-28T11:50:19;15.80;98.80
4874;DHT22;2451;49.970;9.068;2024-02-28T11:52:48;16.20;97.30
4874;DHT22;2451;49.970;9.068;2024-02-28T11:55:14;16.30;96.50
4874;DHT22;2451;49.970;9.068;2024-02-28T11:57:39;16.60;97.20
4874;DHT22;2451;49.970;9.068;2024-02-28T12:00:08;16.70;96.20
4874;DHT22;2451;49.970;9.068;2024-02-28T12:02:34;16.80;95.20
4874;DHT22;2451;49.970;9.068;2024-02-28T12:05:02;16.90;95.00
4874;DHT22;2451;49.970;9.068;2024-02-28T12:07:29;17.10;94.40
4874;DHT22;2451;49.970;9.068;2024-02-28T12:09:54;17.30;94.70
4874;DHT22;2451;49.970;9.068;2024-02-28T12:12:21;17.20;93.30
4874;DHT22;2451;49.970;9.068;2024-02-28T12:14:47;17.30;93.30
4874;DHT22;2451;49.970;9.068;2024-02-28T12:17:14;17.30;92.70
4874;DHT22;2451;49.970;9.068;2024-02-28T12:19:40;17.30;93.00
4874;DHT22;2451;49.970;9.068;2024-02-28T12:22:05;17.20;92.10
4874;DHT22;2451;49.970;9.068;2024-02-28T12:24:32;17.10;92.50
4874;DHT22;2451;49.970;9.068;2024-02-28T12:26:58;17.10;92.40
4874;DHT22;2451;49.970;9.068;2024-02-28T12:29:24;16.80;92.40
4874;DHT22;2451;49.970;9.068;2024-02-28T12:31:50;16.80;92.40
4874;DHT22;2451;49.970;9.068;2024-02-28T12:34:15;16.80;92.60
4874;DHT22;2451;49.970;9.068;2024-02-28T12:36:41;16.90;92.60
4874;DHT22;2451;49.970;9.068;2024-02-28T12:39:07;16.50;93.50
4874;DHT22;2451;49.970;9.068;2024-02-28T12:41:39;16.40;93.70
4874;DHT22;2451;49.970;9.068;2024-02-28T12:44:05;16.30;93.70
4874;DHT22;2451;49.970;9.068;2024-02-28T12:46:31;16.60;93.00
4874;DHT22;2451;49.970;9.068;2024-02-28T12:48:57;16.80;92.70
4874;DHT22;2451;49.970;9.068;2024-02-28T12:51:41;16.70;92.40
4874;DHT22;2451;49.970;9.068;2024-02-28T12:54:10;16.70;92.10
4874;DHT22;2451;49.970;9.068;2024-02-28T12:56:37;16.80;92.60
4874;DHT22;2451;49.970;9.068;2024-02-28T12:59:03;17.10;91.10
4874;DHT22;2451;49.970;9.068;2024-02-28T13:01:29;17.10;91.10
4874;DHT22;2451;49.970;9.068;2024-02-28T13:03:56;17.10;91.90
4874;DHT22;2451;49.970;9.068;2024-02-28T13:06:21;17.30;90.00
4874;DHT22;2451;49.970;9.068;2024-02-28T13:08:47;17.30;90.00
4874;DHT22;2451;49.970;9.068;2024-02-28T13:11:20;17.20;90.60
4874;DHT22;2451;49.970;9.068;2024-02-28T13:13:47;17.30;89.60
4874;DHT22;2451;49.970;9.068;2024-02-28T13:16:13;17.30;89.60
4874;DHT22;2451;49.970;9.068;2024-02-28T13:18:38;17.40;88.70
4874;DHT22;2451;49.970;9.068;2024-02-28T13:21:04;17.40;87.60
4874;DHT22;2451;49.970;9.068;2024-02-28T13:23:30;17.30;88.40
4874;DHT22;2451;49.970;9.068;2024-02-28T13:26:00;17.20;90.20
4874;DHT22;2451;49.970;9.068;2024-02-28T13:28:26;17.20;88.80
4874;DHT22;2451;49.970;9.068;2024-02-28T13:31:02;17.30;88.80
4874;DHT22;2451;49.970;9.068;2024-02-28T13:33:29;17.30;87.10
4874;DHT22;2451;49.970;9.068;2024-02-28T13:35:55;17.40;85.70
4874;DHT22;2451;49.970;9.068;2024-02-28T13:38:21;17.40;85.90
4874;DHT22;2451;49.970;9.068;2024-02-28T13:40:47;17.00;88.00
4874;DHT22;2451;49.970;9.068;2024-02-28T13:43:13;17.00;87.00
4874;DHT22;2451;49.970;9.068;2024-02-28T13:45:39;17.20;87.10
4874;DHT22;2451;49.970;9.068;2024-02-28T13:48:21;17.20;85.70
4874;DHT22;2451;49.970;9.068;2024-02-28T13:50:48;17.20;83.40
4874;DHT22;2451;49.970;9.068;2024-02-28T13:53:14;17.20;85.70
4874;DHT22;2451;49.970;9.068;2024-02-28T13:55:41;17.20;85.70
4874;DHT22;2451;49.970;9.068;2024-02-28T13:58:08;17.00;85.80
4874;DHT22;2451;49.970;9.068;2024-02-28T14:00:35;17.10;84.10
4874;DHT22;2451;49.970;9.068;2024-02-28T14:03:01;17.00;83.70
4874;DHT22;2451;49.970;9.068;2024-02-28T14:05:28;16.50;86.00
4874;DHT22;2451;49.970;9.068;2024-02-28T14:07:53;16.30;86.80
4874;DHT22;2451;49.970;9.068;2024-02-28T14:10:19;16.10;87.90
4874;DHT22;2451;49.970;9.068;2024-02-28T14:12:44;16.10;89.10
4874;DHT22;2451;49.970;9.068;2024-02-28T14:15:10;16.10;87.40
4874;DHT22;2451;49.970;9.068;2024-02-28T14:17:37;16.30;87.10
4874;DHT22;2451;49.970;9.068;2024-02-28T14:20:03;16.30;86.60
4874;DHT22;2451;49.970;9.068;2024-02-28T14:22:29;16.20;87.00
4874;DHT22;2451;49.970;9.068;2024-02-28T14:24:54;16.30;84.80
4874;DHT22;2451;49.970;9.068;2024-02-28T14:27:20;16.40;84.30
4874;DHT22;2451;49.970;9.068;2024-02-28T14:29:46;16.50;84.40
4874;DHT22;2451;49.970;9.068;2024-02-28T14:32:14;16.30;82.70
4874;DHT22;2451;49.970;9.068;2024-02-28T14:34:40;16.10;84.90
4874;DHT22;2451;49.970;9.068;2024-02-28T14:37:06;15.60;86.10
4874;DHT22;2451;49.970;9.068;2024-02-28T14:39:33;15.60;86.10
4874;DHT22;2451;49.970;9.068;2024-02-28T14:41:59;15.40;85.30
4874;DHT22;2451;49.970;9.068;2024-02-28T14:44:24;15.00;83.90
4874;DHT22;2451;49.970;9.068;2024-02-28T14:46:50;14.70;84.10
4874;DHT22;2451;49.970;9.068;2024-02-28T14:49:17;14.60;84.50
4874;DHT22;2451;49.970;9.068;2024-02-28T14:51:43;14.50;83.80
4874;DHT22;2451;49.970;9.068;2024-02-28T14:54:14;14.50;84.90
4874;DHT22;2451;49.970;9.068;2024-02-28T14:56:40;14.50;84.60
4874;DHT22;2451;49.970;9.068;2024-02-28T14:59:05;14.10;85.30
4874;DHT22;2451;49.970;9.068;2024-02-28T15:01:32;14.00;86.90
4874;DHT22;2451;49.970;9.068;2024-02-28T15:03:57;14.20;88.20
4874;DHT22;2451;49.970;9.068;2024-02-28T15:06:23;14.20;87.60
4874;DHT22;2451;49.970;9.068;2024-02-28T15:08:48;14.10;86.10
4874;DHT22;2451;49.970;9.068;2024-02-28T15:11:15;14.30;86.40
4874;DHT22;2451;49.970;9.068;2024-02-28T15:13:40;14.40;85.90
4874;DHT22;2451;49.970;9.068;2024-02-28T15:16:06;14.20;86.10
4874;DHT22;2451;49.970;9.068;2024-02-28T15:18:32;14.00;86.80
4874;DHT22;2451;49.970;9.068;2024-02-28T15:20:58;13.90;88.30
4874;DHT22;2451;49.970;9.068;2024-02-28T15:23:23;13.50;88.40
4874;DHT22;2451;49.970;9.068;2024-02-28T15:25:49;13.40;89.00
4874;DHT22;2451;49.970;9.068;2024-02-28T15:28:14;13.30;89.60
4874;DHT22;2451;49.970;9.068;2024-02-28T15:30:41;13.10;89.20
4874;DHT22;2451;49.970;9.068;2024-02-28T15:33:07;13.00;88.80
4874;DHT22;2451;49.970;9.068;2024-02-28T15:35:32;12.80;89.80
4874;DHT22;2451;49.970;9.068;2024-02-28T15:37:58;12.80;90.70
4874;DHT22;2451;49.970;9.068;2024-02-28T15:40:23;12.50;91.00
4874;DHT22;2451;49.970;9.068;2024-02-28T15:42:49;12.40;91.70
4874;DHT22;2451;49.970;9.068;2024-02-28T15:45:15;12.10;91.80
4874;DHT22;2451;49.970;9.068;2024-02-28T15:47:44;11.80;92.60
4874;DHT22;2451;49.970;9.068;2024-02-28T15:50:10;11.60;93.30
4874;DHT22;2451;49.970;9.068;2024-02-28T15:52:36;11.50;94.00
4874;DHT22;2451;49.970;9.068;2024-02-28T15:55:01;11.40;94.10
4874;DHT22;2451;49.970;9.068;2024-02-28T15:57:27;11.40;94.40
4874;DHT22;2451;49.970;9.068;2024-02-28T15:59:52;11.30;94.00
4874;DHT22;2451;49.970;9.068;2024-02-28T16:02:18;11.30;94.20
4874;DHT22;2451;49.970;9.068;2024-02-28T16:04:43;11.20;94.20
4874;DHT22;2451;49.970;9.068;2024-02-28T16:07:09;11.10;94.50